sensor_id;sensor_type;location;lat;lon;timestamp;temperature;humidity
1025;DHT22;501;48.214;11.350;2022-11-20T00:01:22;6.70;60.40
1025;DHT22;501;48.214;11.350;2022-11-20T00:03:50;6.70;61.60
1025;DHT22;501;48.214;11.350;2022-11-20T00:06:18;6.70;61.60
1025;DHT22;501;48.214;11.350;2022-11-20T00:08:44;6.70;61.90
1025;DHT22;501;48.214;11.350;2022-11-20T00:11:15;6.80;62.00
1025;DHT22;501;48.214;11.350;2022-11-20T00:13:41;6.80;61.90
1025;DHT22;501;48.214;11.350;2022-11-20T00:16:09;6.80;60.90
1025;DHT22;501;48.214;11.350;2022-11-20T00:18:35;6.70;60.20
1025;DHT22;501;48.214;11.350;2022-11-20T00:21:06;6.70;61.10
1025;DHT22;501;48.214;11.350;2022-11-20T00:23:32;6.70;60.90
1025;DHT22;501;48.214;11.350;2022-11-20T00:26:02;6.70;61.20
1025;DHT22;501;48.214;11.350;2022-11-20T00:28:28;6.70;60.00
1025;DHT22;501;48.214;11.350;2022-11-20T00:31:01;6.70;60.30
1025;DHT22;501;48.214;11.350;2022-11-20T00:33:27;6.70;60.00
1025;DHT22;501;48.214;11.350;2022-11-20T00:35:53;6.70;60.10
1025;DHT22;501;48.214;11.350;2022-11-20T00:38:18;6.70;59.90
1025;DHT22;501;48.214;11.350;2022-11-20T00:40:44;6.70;60.40
1025;DHT22;501;48.214;11.350;2022-11-20T00:43:09;6.70;60.50
1025;DHT22;501;48.214;11.350;2022-11-20T00:45:35;6.70;59.90
1025;DHT22;501;48.214;11.350;2022-11-20T00:48:01;6.70;59.60
1025;DHT22;501;48.214;11.350;2022-11-20T00:50:26;6.60;59.50
1025;DHT22;501;48.214;11.350;2022-11-20T00:52:52;6.60;59.80
1025;DHT22;501;48.214;11.350;2022-11-20T00:55:17;6.60;59.40
1025;DHT22;501;48.214;11.350;2022-11-20T00:57:43;6.60;59.50
1025;DHT22;501;48.214;11.350;2022-11-20T01:00:09;6.60;59.10
1025;DHT22;501;48.214;11.350;2022-11-20T01:02:34;6.60;58.80
1025;DHT22;501;48.214;11.350;2022-11-20T01:05:00;6.60;59.70
1025;DHT22;501;48.214;11.350;2022-11-20T01:07:25;6.60;59.30
1025;DHT22;501;48.214;11.350;2022-11-20T01:09:51;6.60;59.60
1025;DHT22;501;48.214;11.350;2022-11-20T01:12:17;6.60;59.00
1025;DHT22;501;48.214;11.350;2022-11-20T01:14:42;6.60;59.30
1025;DHT22;501;48.214;11.350;2022-11-20T01:17:08;6.60;59.20
1025;DHT22;501;48.214;11.350;2022-11-20T01:19:33;6.60;58.50
1025;DHT22;501;48.214;11.350;2022-11-20T01:21:59;6.60;58.90
1025;DHT22;501;48.214;11.350;2022-11-20T01:24:24;6.60;59.40
1025;DHT22;501;48.214;11.350;2022-11-20T01:26:51;6.60;59.10
1025;DHT22;501;48.214;11.350;2022-11-20T01:29:22;6.60;59.10
1025;DHT22;501;48.214;11.350;2022-11-20T01:31:49;6.60;59.00
1025;DHT22;501;48.214;11.350;2022-11-20T01:34:19;6.50;58.30
1025;DHT22;501;48.214;11.350;2022-11-20T01:36:46;6.50;58.00
1025;DHT22;501;48.214;11.350;2022-11-20T01:39:16;6.50;58.30
1025;DHT22;501;48.214;11.350;2022-11-20T01:41:42;6.50;58.70
1025;DHT22;501;48.214;11.350;2022-11-20T01:45:00;6.50;59.80
1025;DHT22;501;48.214;11.350;2022-11-20T01:47:38;6.50;58.90
1025;DHT22;501;48.214;11.350;2022-11-20T01:50:16;6.50;59.60
1025;DHT22;501;48.214;11.350;2022-11-20T01:52:46;6.50;59.40
1025;DHT22;501;48.214;11.350;2022-11-20T01:55:19;6.50;59.60
1025;DHT22;501;48.214;11.350;2022-11-20T01:57:45;6.50;59.70
1025;DHT22;501;48.214;11.350;2022-11-20T02:00:16;6.50;59.20
1025;DHT22;501;48.214;11.350;2022-11-20T02:02:51;6.50;58.80
1025;DHT22;501;48.214;11.350;2022-11-20T02:07:59;6.50;58.50
1025;DHT22;501;48.214;11.350;2022-11-20T02:10:26;6.50;59.20
1025;DHT22;501;48.214;11.350;2022-11-20T02:12:52;6.50;59.50
1025;DHT22;501;48.214;11.350;2022-11-20T02:15:37;6.50;59.90
1025;DHT22;501;48.214;11.350;2022-11-20T02:18:02;6.50;60.30
1025;DHT22;501;48.214;11.350;2022-11-20T02:20:28;6.50;60.40
1025;DHT22;501;48.214;11.350;2022-11-20T02:22:55;6.50;59.90
1025;DHT22;501;48.214;11.350;2022-11-20T02:25:23;6.50;59.20
1025;DHT22;501;48.214;11.350;2022-11-20T02:27:50;6.50;59.60
1025;DHT22;501;48.214;11.350;2022-11-20T02:30:16;6.60;59.10
1025;DHT22;501;48.214;11.350;2022-11-20T02:32:42;6.60;58.00
1025;DHT22;501;48.214;11.350;2022-11-20T02:37:50;6.60;58.70
1025;DHT22;501;48.214;11.350;2022-11-20T02:40:18;6.60;59.00
1025;DHT22;501;48.214;11.350;2022-11-20T02:42:44;6.60;59.00
1025;DHT22;501;48.214;11.350;2022-11-20T02:45:09;6.60;58.80
1025;DHT22;501;48.214;11.350;2022-11-20T02:47:35;6.60;58.10
1025;DHT22;501;48.214;11.350;2022-11-20T02:50:01;6.60;58.30
1025;DHT22;501;48.214;11.350;2022-11-20T02:52:26;6.60;58.40
1025;DHT22;501;48.214;11.350;2022-11-20T02:54:52;6.60;57.30
1025;DHT22;501;48.214;11.350;2022-11-20T02:57:18;6.60;56.80
1025;DHT22;501;48.214;11.350;2022-11-20T02:59:43;6.60;56.80
1025;DHT22;501;48.214;11.350;2022-11-20T03:02:09;6.60;57.10
1025;DHT22;501;48.214;11.350;2022-11-20T03:04:35;6.60;56.70
1025;DHT22;501;48.214;11.350;2022-11-20T03:07:00;6.60;55.60
1025;DHT22;501;48.214;11.350;2022-11-20T03:09:26;6.50;55.60
1025;DHT22;501;48.214;11.350;2022-11-20T03:11:52;6.50;55.60
1025;DHT22;501;48.214;11.350;2022-11-20T03:14:17;6.50;55.50
1025;DHT22;501;48.214;11.350;2022-11-20T03:16:43;6.50;55.90
1025;DHT22;501;48.214;11.350;2022-11-20T03:19:08;6.50;55.50
1025;DHT22;501;48.214;11.350;2022-11-20T03:21:34;6.50;56.20
1025;DHT22;501;48.214;11.350;2022-11-20T03:24:01;6.50;55.50
1025;DHT22;501;48.214;11.350;2022-11-20T03:26:27;6.50;55.60
1025;DHT22;501;48.214;11.350;2022-11-20T03:28:55;6.50;54.60
1025;DHT22;501;48.214;11.350;2022-11-20T03:31:26;6.60;54.10
1025;DHT22;501;48.214;11.350;2022-11-20T03:33:52;6.50;54.10
1025;DHT22;501;48.214;11.350;2022-11-20T03:36:19;6.50;54.70
1025;DHT22;501;48.214;11.350;2022-11-20T03:38:45;6.50;54.30
1025;DHT22;501;48.214;11.350;2022-11-20T03:41:16;6.50;54.30
1025;DHT22;501;48.214;11.350;2022-11-20T03:43:49;6.50;53.60
1025;DHT22;501;48.214;11.350;2022-11-20T03:46:15;6.50;54.30
1025;DHT22;501;48.214;11.350;2022-11-20T03:48:41;6.50;54.00
1025;DHT22;501;48.214;11.350;2022-11-20T03:53:33;6.50;54.10
1025;DHT22;501;48.214;11.350;2022-11-20T03:55:58;6.50;53.90
1025;DHT22;501;48.214;11.350;2022-11-20T03:58:24;6.50;54.00
1025;DHT22;501;48.214;11.350;2022-11-20T04:00:50;6.50;52.80
1025;DHT22;501;48.214;11.350;2022-11-20T04:03:15;6.50;54.00
1025;DHT22;501;48.214;11.350;2022-11-20T04:05:41;6.50;53.40
1025;DHT22;501;48.214;11.350;2022-11-20T04:08:07;6.50;53.60
1025;DHT22;501;48.214;11.350;2022-11-20T04:10:32;6.50;53.80
1025;DHT22;501;48.214;11.350;2022-11-20T04:12:58;6.50;53.70
1025;DHT22;501;48.214;11.350;2022-11-20T04:15:23;6.50;54.20
1025;DHT22;501;48.214;11.350;2022-11-20T04:17:49;6.50;54.50
1025;DHT22;501;48.214;11.350;2022-11-20T04:20:15;6.50;54.10
1025;DHT22;501;48.214;11.350;2022-11-20T04:22:40;6.50;54.80
1025;DHT22;501;48.214;11.350;2022-11-20T04:25:06;6.50;53.90
1025;DHT22;501;48.214;11.350;2022-11-20T04:27:32;6.50;54.10
1025;DHT22;501;48.214;11.350;2022-11-20T04:29:57;6.50;54.10
1025;DHT22;501;48.214;11.350;2022-11-20T04:32:23;6.60;54.40
1025;DHT22;501;48.214;11.350;2022-11-20T04:34:48;6.60;54.10
1025;DHT22;501;48.214;11.350;2022-11-20T04:37:14;6.50;54.20
1025;DHT22;501;48.214;11.350;2022-11-20T04:39:40;6.50;53.50
1025;DHT22;501;48.214;11.350;2022-11-20T04:42:05;6.50;53.60
1025;DHT22;501;48.214;11.350;2022-11-20T04:44:49;6.50;53.20
1025;DHT22;501;48.214;11.350;2022-11-20T04:47:15;6.50;54.20
1025;DHT22;501;48.214;11.350;2022-11-20T04:49:40;6.50;53.60
1025;DHT22;501;48.214;11.350;2022-11-20T04:52:06;6.50;53.60
1025;DHT22;501;48.214;11.350;2022-11-20T04:54:31;6.50;54.30
1025;DHT22;501;48.214;11.350;2022-11-20T04:56:57;6.50;53.70
1025;DHT22;501;48.214;11.350;2022-11-20T04:59:22;6.40;53.90
1025;DHT22;501;48.214;11.350;2022-11-20T05:01:48;6.40;53.60
1025;DHT22;501;48.214;11.350;2022-11-20T05:04:14;6.40;54.00
1025;DHT22;501;48.214;11.350;2022-11-20T05:06:39;6.50;54.50
1025;DHT22;501;48.214;11.350;2022-11-20T05:09:05;6.50;53.80
1025;DHT22;501;48.214;11.350;2022-11-20T05:11:31;6.50;53.70
1025;DHT22;501;48.214;11.350;2022-11-20T05:13:58;6.50;52.90
1025;DHT22;501;48.214;11.350;2022-11-20T05:16:25;6.40;53.50
1025;DHT22;501;48.214;11.350;2022-11-20T05:18:52;6.40;52.30
1025;DHT22;501;48.214;11.350;2022-11-20T05:21:18;6.40;53.30
1025;DHT22;501;48.214;11.350;2022-11-20T05:23:45;6.50;52.80
1025;DHT22;501;48.214;11.350;2022-11-20T05:26:16;6.40;53.30
1025;DHT22;501;48.214;11.350;2022-11-20T05:28:42;6.40;52.40
1025;DHT22;501;48.214;11.350;2022-11-20T05:31:12;6.40;52.30
1025;DHT22;501;48.214;11.350;2022-11-20T05:33:40;6.40;53.10
1025;DHT22;501;48.214;11.350;2022-11-20T05:36:07;6.40;53.50
1025;DHT22;501;48.214;11.350;2022-11-20T05:38:33;6.40;53.20
1025;DHT22;501;48.214;11.350;2022-11-20T05:41:06;6.40;53.50
1025;DHT22;501;48.214;11.350;2022-11-20T05:43:36;6.40;53.60
1025;DHT22;501;48.214;11.350;2022-11-20T05:46:03;6.40;52.20
1025;DHT22;501;48.214;11.350;2022-11-20T05:48:29;6.40;52.00
1025;DHT22;501;48.214;11.350;2022-11-20T05:50:57;6.40;51.40
1025;DHT22;501;48.214;11.350;2022-11-20T05:53:23;6.30;51.70
1025;DHT22;501;48.214;11.350;2022-11-20T05:55:59;6.30;51.40
1025;DHT22;501;48.214;11.350;2022-11-20T05:58:26;6.30;51.10
1025;DHT22;501;48.214;11.350;2022-11-20T06:00:51;6.30;51.00
1025;DHT22;501;48.214;11.350;2022-11-20T06:03:17;6.30;51.60
1025;DHT22;501;48.214;11.350;2022-11-20T06:05:43;6.20;50.30
1025;DHT22;501;48.214;11.350;2022-11-20T06:08:08;6.20;50.90
1025;DHT22;501;48.214;11.350;2022-11-20T06:10:34;6.10;50.60
1025;DHT22;501;48.214;11.350;2022-11-20T06:13:00;6.10;50.90
1025;DHT22;501;48.214;11.350;2022-11-20T06:15:25;6.10;50.40
1025;DHT22;501;48.214;11.350;2022-11-20T06:17:55;6.10;50.30
1025;DHT22;501;48.214;11.350;2022-11-20T06:20:21;6.00;49.70
1025;DHT22;501;48.214;11.350;2022-11-20T06:22:47;6.00;49.90
1025;DHT22;501;48.214;11.350;2022-11-20T06:25:13;6.00;49.40
1025;DHT22;501;48.214;11.350;2022-11-20T06:27:39;5.90;49.60
1025;DHT22;501;48.214;11.350;2022-11-20T06:30:05;5.90;49.40
1025;DHT22;501;48.214;11.350;2022-11-20T06:32:30;5.90;49.10
1025;DHT22;501;48.214;11.350;2022-11-20T06:34:56;5.90;49.70
1025;DHT22;501;48.214;11.350;2022-11-20T06:37:22;5.90;50.10
1025;DHT22;501;48.214;11.350;2022-11-20T06:39:47;6.00;49.90
1025;DHT22;501;48.214;11.350;2022-11-20T06:42:13;6.00;50.00
1025;DHT22;501;48.214;11.350;2022-11-20T06:44:38;6.00;50.10
1025;DHT22;501;48.214;11.350;2022-11-20T06:47:04;6.00;50.80
1025;DHT22;501;48.214;11.350;2022-11-20T06:49:30;6.00;50.20
1025;DHT22;501;48.214;11.350;2022-11-20T06:51:55;6.00;50.00
1025;DHT22;501;48.214;11.350;2022-11-20T06:54:21;6.10;50.30
1025;DHT22;501;48.214;11.350;2022-11-20T06:56:47;6.10;50.30
1025;DHT22;501;48.214;11.350;2022-11-20T06:59:13;6.10;50.10
1025;DHT22;501;48.214;11.350;2022-11-20T07:01:39;6.10;50.00
1025;DHT22;501;48.214;11.350;2022-11-20T07:04:04;6.10;49.20
1025;DHT22;501;48.214;11.350;2022-11-20T07:06:30;6.20;49.30
1025;DHT22;501;48.214;11.350;2022-11-20T07:08:56;6.20;49.30
1025;DHT22;501;48.214;11.350;2022-11-20T07:11:22;6.20;49.70
1025;DHT22;501;48.214;11.350;2022-11-20T07:13:48;6.20;49.60
1025;DHT22;501;48.214;11.350;2022-11-20T07:16:13;6.20;49.00
1025;DHT22;501;48.214;11.350;2022-11-20T07:18:39;6.30;48.80
1025;DHT22;501;48.214;11.350;2022-11-20T07:21:07;6.30;47.50
1025;DHT22;501;48.214;11.350;2022-11-20T07:23:33;6.20;47.90
1025;DHT22;501;48.214;11.350;2022-11-20T07:26:06;6.20;48.30
1025;DHT22;501;48.214;11.350;2022-11-20T07:28:33;6.20;48.50
1025;DHT22;501;48.214;11.350;2022-11-20T07:30:58;6.30;49.20
1025;DHT22;501;48.214;11.350;2022-11-20T07:33:24;6.30;47.90
1025;DHT22;501;48.214;11.350;2022-11-20T07:35:50;6.30;48.00
1025;DHT22;501;48.214;11.350;2022-11-20T07:38:15;6.30;48.50
1025;DHT22;501;48.214;11.350;2022-11-20T07:40:41;6.30;49.40
1025;DHT22;501;48.214;11.350;2022-11-20T07:43:07;6.30;49.10
1025;DHT22;501;48.214;11.350;2022-11-20T07:45:32;6.40;48.60
1025;DHT22;501;48.214;11.350;2022-11-20T07:47:58;6.40;48.70
1025;DHT22;501;48.214;11.350;2022-11-20T07:50:23;6.40;48.90
1025;DHT22;501;48.214;11.350;2022-11-20T07:52:49;6.40;48.70
1025;DHT22;501;48.214;11.350;2022-11-20T07:55:15;6.40;48.90
1025;DHT22;501;48.214;11.350;2022-11-20T07:57:40;6.40;47.80
1025;DHT22;501;48.214;11.350;2022-11-20T08:00:08;6.40;48.00
1025;DHT22;501;48.214;11.350;2022-11-20T08:02:39;6.40;49.10
1025;DHT22;501;48.214;11.350;2022-11-20T08:05:06;6.50;49.20
1025;DHT22;501;48.214;11.350;2022-11-20T08:07:39;6.50;48.00
1025;DHT22;501;48.214;11.350;2022-11-20T08:10:05;6.50;48.10
1025;DHT22;501;48.214;11.350;2022-11-20T08:12:31;6.50;48.80
1025;DHT22;501;48.214;11.350;2022-11-20T08:15:15;6.60;48.10
1025;DHT22;501;48.214;11.350;2022-11-20T08:17:41;6.60;47.10
1025;DHT22;501;48.214;11.350;2022-11-20T08:20:07;6.70;47.10
1025;DHT22;501;48.214;11.350;2022-11-20T08:22:32;6.70;48.10
1025;DHT22;501;48.214;11.350;2022-11-20T08:24:58;6.70;47.60
1025;DHT22;501;48.214;11.350;2022-11-20T08:27:23;6.70;47.20
1025;DHT22;501;48.214;11.350;2022-11-20T08:29:49;6.80;47.30
1025;DHT22;501;48.214;11.350;2022-11-20T08:32:14;6.80;47.30
1025;DHT22;501;48.214;11.350;2022-11-20T08:34:40;6.80;47.30
1025;DHT22;501;48.214;11.350;2022-11-20T08:37:06;6.80;47.30
1025;DHT22;501;48.214;11.350;2022-11-20T08:39:31;6.90;46.90
1025;DHT22;501;48.214;11.350;2022-11-20T08:41:57;6.90;47.30
1025;DHT22;501;48.214;11.350;2022-11-20T08:44:22;7.00;46.80
1025;DHT22;501;48.214;11.350;2022-11-20T08:46:48;7.00;47.50
1025;DHT22;501;48.214;11.350;2022-11-20T08:49:14;7.10;46.00
1025;DHT22;501;48.214;11.350;2022-11-20T08:51:41;7.10;44.90
1025;DHT22;501;48.214;11.350;2022-11-20T08:54:07;7.00;45.00
1025;DHT22;501;48.214;11.350;2022-11-20T08:56:33;7.00;45.20
1025;DHT22;501;48.214;11.350;2022-11-20T08:58:59;7.00;44.90
1025;DHT22;501;48.214;11.350;2022-11-20T09:01:25;7.10;45.20
1025;DHT22;501;48.214;11.350;2022-11-20T09:03:51;7.10;45.60
1025;DHT22;501;48.214;11.350;2022-11-20T09:06:17;7.10;45.60
1025;DHT22;501;48.214;11.350;2022-11-20T09:08:43;7.10;46.20
1025;DHT22;501;48.214;11.350;2022-11-20T09:11:09;7.20;46.70
1025;DHT22;501;48.214;11.350;2022-11-20T09:13:36;7.20;44.70
1025;DHT22;501;48.214;11.350;2022-11-20T09:16:04;7.30;45.10
1025;DHT22;501;48.214;11.350;2022-11-20T09:18:31;7.30;44.30
1025;DHT22;501;48.214;11.350;2022-11-20T09:21:02;7.30;44.20
1025;DHT22;501;48.214;11.350;2022-11-20T09:23:32;7.40;44.60
1025;DHT22;501;48.214;11.350;2022-11-20T09:26:05;7.50;45.00
1025;DHT22;501;48.214;11.350;2022-11-20T09:28:31;7.50;42.80
1025;DHT22;501;48.214;11.350;2022-11-20T09:30:57;7.60;44.40
1025;DHT22;501;48.214;11.350;2022-11-20T09:33:23;7.70;44.00
1025;DHT22;501;48.214;11.350;2022-11-20T09:35:48;7.70;42.90
1025;DHT22;501;48.214;11.350;2022-11-20T09:38:14;7.70;42.60
1025;DHT22;501;48.214;11.350;2022-11-20T09:41:00;7.80;43.00
1025;DHT22;501;48.214;11.350;2022-11-20T09:49:34;8.00;43.10
1025;DHT22;501;48.214;11.350;2022-11-20T09:54:55;8.10;42.70
1025;DHT22;501;48.214;11.350;2022-11-20T09:57:25;8.20;42.40
1025;DHT22;501;48.214;11.350;2022-11-20T10:00:00;8.30;42.70
1025;DHT22;501;48.214;11.350;2022-11-20T10:03:13;8.30;41.90
1025;DHT22;501;48.214;11.350;2022-11-20T10:05:46;8.40;41.20
1025;DHT22;501;48.214;11.350;2022-11-20T10:08:17;8.30;41.60
1025;DHT22;501;48.214;11.350;2022-11-20T10:10:53;8.40;40.40
1025;DHT22;501;48.214;11.350;2022-11-20T10:16:09;8.30;41.90
1025;DHT22;501;48.214;11.350;2022-11-20T10:22:01;8.40;40.80
1025;DHT22;501;48.214;11.350;2022-11-20T10:24:56;8.40;40.00
1025;DHT22;501;48.214;11.350;2022-11-20T10:30:10;8.40;40.10
1025;DHT22;501;48.214;11.350;2022-11-20T10:32:39;8.40;40.10
1025;DHT22;501;48.214;11.350;2022-11-20T10:35:19;8.50;39.90
1025;DHT22;501;48.214;11.350;2022-11-20T10:38:09;8.50;39.80
1025;DHT22;501;48.214;11.350;2022-11-20T10:40:44;8.50;40.50
1025;DHT22;501;48.214;11.350;2022-11-20T10:43:15;8.60;39.90
1025;DHT22;501;48.214;11.350;2022-11-20T10:48:21;8.50;39.90
1025;DHT22;501;48.214;11.350;2022-11-20T10:56:48;8.50;40.30
1025;DHT22;501;48.214;11.350;2022-11-20T11:04:48;8.70;39.60
1025;DHT22;501;48.214;11.350;2022-11-20T11:07:35;8.70;38.70
1025;DHT22;501;48.214;11.350;2022-11-20T11:10:01;8.60;38.90
1025;DHT22;501;48.214;11.350;2022-11-20T11:12:31;8.60;39.50
1025;DHT22;501;48.214;11.350;2022-11-20T11:14:57;8.50;39.10
1025;DHT22;501;48.214;11.350;2022-11-20T11:22:23;8.40;40.40
1025;DHT22;501;48.214;11.350;2022-11-20T11:24:53;8.50;39.90
1025;DHT22;501;48.214;11.350;2022-11-20T11:27:19;8.40;39.80
1025;DHT22;501;48.214;11.350;2022-11-20T11:29:45;8.40;39.10
1025;DHT22;501;48.214;11.350;2022-11-20T11:32:21;8.40;39.70
1025;DHT22;501;48.214;11.350;2022-11-20T11:35:01;8.30;39.70
1025;DHT22;501;48.214;11.350;2022-11-20T11:37:32;8.30;40.20
1025;DHT22;501;48.214;11.350;2022-11-20T11:39:58;8.30;40.20
1025;DHT22;501;48.214;11.350;2022-11-20T11:42:24;8.40;39.40
1025;DHT22;501;48.214;11.350;2022-11-20T11:44:57;8.40;39.80
1025;DHT22;501;48.214;11.350;2022-11-20T11:55:56;8.20;40.40
1025;DHT22;501;48.214;11.350;2022-11-20T11:58:48;8.10;43.00
1025;DHT22;501;48.214;11.350;2022-11-20T12:04:02;8.00;43.90
1025;DHT22;501;48.214;11.350;2022-11-20T12:06:30;8.00;43.10
1025;DHT22;501;48.214;11.350;2022-11-20T12:09:11;8.00;43.80
1025;DHT22;501;48.214;11.350;2022-11-20T12:14:34;8.10;45.00
1025;DHT22;501;48.214;11.350;2022-11-20T12:17:01;8.20;42.90
1025;DHT22;501;48.214;11.350;2022-11-20T12:19:30;8.20;43.70
1025;DHT22;501;48.214;11.350;2022-11-20T12:22:27;8.30;41.20
1025;DHT22;501;48.214;11.350;2022-11-20T12:25:10;8.30;43.90
1025;DHT22;501;48.214;11.350;2022-11-20T12:30:24;8.20;44.30
1025;DHT22;501;48.214;11.350;2022-11-20T12:43:28;8.10;43.20
1025;DHT22;501;48.214;11.350;2022-11-20T12:46:39;8.00;42.60
1025;DHT22;501;48.214;11.350;2022-11-20T12:49:13;8.00;43.00
1025;DHT22;501;48.214;11.350;2022-11-20T12:51:48;8.00;44.00
1025;DHT22;501;48.214;11.350;2022-11-20T12:57:27;7.90;44.60
1025;DHT22;501;48.214;11.350;2022-11-20T13:00:08;7.90;44.60
1025;DHT22;501;48.214;11.350;2022-11-20T13:03:06;8.00;44.60
1025;DHT22;501;48.214;11.350;2022-11-20T13:08:25;7.90;46.60
1025;DHT22;501;48.214;11.350;2022-11-20T13:11:07;7.80;46.50
1025;DHT22;501;48.214;11.350;2022-11-20T13:14:24;7.70;48.00
1025;DHT22;501;48.214;11.350;2022-11-20T13:19:14;7.70;48.00
1025;DHT22;501;48.214;11.350;2022-11-20T13:21:46;7.70;48.10
1025;DHT22;501;48.214;11.350;2022-11-20T13:29:35;7.60;47.90
1025;DHT22;501;48.214;11.350;2022-11-20T13:32:14;7.60;47.90
1025;DHT22;501;48.214;11.350;2022-11-20T13:34:52;7.70;49.10
1025;DHT22;501;48.214;11.350;2022-11-20T13:45:32;7.70;49.30
1025;DHT22;501;48.214;11.350;2022-11-20T13:48:02;7.70;49.90
1025;DHT22;501;48.214;11.350;2022-11-20T13:50:40;7.70;48.90
1025;DHT22;501;48.214;11.350;2022-11-20T13:53:30;7.70;48.00
1025;DHT22;501;48.214;11.350;2022-11-20T13:56:04;7.70;48.00
1025;DHT22;501;48.214;11.350;2022-11-20T14:01:31;7.60;47.90
1025;DHT22;501;48.214;11.350;2022-11-20T14:03:58;7.60;47.90
1025;DHT22;501;48.214;11.350;2022-11-20T14:06:30;7.60;48.50
1025;DHT22;501;48.214;11.350;2022-11-20T14:08:57;7.60;47.90
1025;DHT22;501;48.214;11.350;2022-11-20T14:11:25;7.60;47.90
1025;DHT22;501;48.214;11.350;2022-11-20T14:16:29;7.60;49.30
1025;DHT22;501;48.214;11.350;2022-11-20T14:18:55;7.60;49.10
1025;DHT22;501;48.214;11.350;2022-11-20T14:21:27;7.50;49.20
1025;DHT22;501;48.214;11.350;2022-11-20T14:24:10;7.60;50.00
1025;DHT22;501;48.214;11.350;2022-11-20T14:26:38;7.60;48.80
1025;DHT22;501;48.214;11.350;2022-11-20T14:31:44;7.60;48.20
1025;DHT22;501;48.214;11.350;2022-11-20T14:34:28;7.60;48.40
1025;DHT22;501;48.214;11.350;2022-11-20T14:37:03;7.60;49.30
1025;DHT22;501;48.214;11.350;2022-11-20T14:39:34;7.60;48.70
1025;DHT22;501;48.214;11.350;2022-11-20T14:42:00;7.60;48.60
1025;DHT22;501;48.214;11.350;2022-11-20T14:44:30;7.60;47.90
1025;DHT22;501;48.214;11.350;2022-11-20T14:46:57;7.50;48.60
1025;DHT22;501;48.214;11.350;2022-11-20T14:49:23;7.60;48.80
1025;DHT22;501;48.214;11.350;2022-11-20T14:51:59;7.60;47.90
1025;DHT22;501;48.214;11.350;2022-11-20T14:54:25;7.60;47.70
1025;DHT22;501;48.214;11.350;2022-11-20T14:57:03;7.50;47.80
1025;DHT22;501;48.214;11.350;2022-11-20T14:59:31;7.50;47.80
1025;DHT22;501;48.214;11.350;2022-11-20T15:02:00;7.50;47.80
1025;DHT22;501;48.214;11.350;2022-11-20T15:04:26;7.50;47.60
1025;DHT22;501;48.214;11.350;2022-11-20T15:06:55;7.40;47.30
1025;DHT22;501;48.214;11.350;2022-11-20T15:09:21;7.40;47.80
1025;DHT22;501;48.214;11.350;2022-11-20T15:11:55;7.40;47.70
1025;DHT22;501;48.214;11.350;2022-11-20T15:14:23;7.40;46.50
1025;DHT22;501;48.214;11.350;2022-11-20T15:16:49;7.40;47.20
1025;DHT22;501;48.214;11.350;2022-11-20T15:19:20;7.30;46.80
1025;DHT22;501;48.214;11.350;2022-11-20T15:21:46;7.30;47.70
1025;DHT22;501;48.214;11.350;2022-11-20T15:24:12;7.30;47.60
1025;DHT22;501;48.214;11.350;2022-11-20T15:26:38;7.40;48.30
1025;DHT22;501;48.214;11.350;2022-11-20T15:29:11;7.30;47.70
1025;DHT22;501;48.214;11.350;2022-11-20T15:31:37;7.30;47.10
1025;DHT22;501;48.214;11.350;2022-11-20T15:34:11;7.30;46.80
1025;DHT22;501;48.214;11.350;2022-11-20T15:36:38;7.30;47.10
1025;DHT22;501;48.214;11.350;2022-11-20T15:39:04;7.30;47.50
1025;DHT22;501;48.214;11.350;2022-11-20T15:41:30;7.30;47.70
1025;DHT22;501;48.214;11.350;2022-11-20T15:43:55;7.30;50.10
1025;DHT22;501;48.214;11.350;2022-11-20T15:46:26;7.30;52.00
1025;DHT22;501;48.214;11.350;2022-11-20T15:48:56;7.20;52.50
1025;DHT22;501;48.214;11.350;2022-11-20T15:51:40;7.10;51.90
1025;DHT22;501;48.214;11.350;2022-11-20T15:54:18;7.10;52.90
1025;DHT22;501;48.214;11.350;2022-11-20T15:56:46;7.00;53.00
1025;DHT22;501;48.214;11.350;2022-11-20T15:59:12;6.90;53.40
1025;DHT22;501;48.214;11.350;2022-11-20T16:01:40;6.80;53.30
1025;DHT22;501;48.214;11.350;2022-11-20T16:04:13;6.80;53.60
1025;DHT22;501;48.214;11.350;2022-11-20T16:06:39;6.70;53.50
1025;DHT22;501;48.214;11.350;2022-11-20T16:09:06;6.70;54.60
1025;DHT22;501;48.214;11.350;2022-11-20T16:11:32;6.60;54.50
1025;DHT22;501;48.214;11.350;2022-11-20T16:13:58;6.60;55.10
1025;DHT22;501;48.214;11.350;2022-11-20T16:16:42;6.60;55.40
1025;DHT22;501;48.214;11.350;2022-11-20T16:19:12;6.50;55.50
1025;DHT22;501;48.214;11.350;2022-11-20T16:21:39;6.50;55.50
1025;DHT22;501;48.214;11.350;2022-11-20T16:24:07;6.50;55.60
1025;DHT22;501;48.214;11.350;2022-11-20T16:26:34;6.50;55.80
1025;DHT22;501;48.214;11.350;2022-11-20T16:29:00;6.50;56.00
1025;DHT22;501;48.214;11.350;2022-11-20T16:31:26;6.40;55.90
1025;DHT22;501;48.214;11.350;2022-11-20T16:33:54;6.40;55.60
1025;DHT22;501;48.214;11.350;2022-11-20T16:36:21;6.40;55.40
1025;DHT22;501;48.214;11.350;2022-11-20T16:38:52;6.40;55.40
1025;DHT22;501;48.214;11.350;2022-11-20T16:41:17;6.40;55.50
1025;DHT22;501;48.214;11.350;2022-11-20T16:43:56;6.40;55.40
1025;DHT22;501;48.214;11.350;2022-11-20T16:46:23;6.30;55.20
1025;DHT22;501;48.214;11.350;2022-11-20T16:48:56;6.30;54.70
1025;DHT22;501;48.214;11.350;2022-11-20T16:51:23;6.30;54.50
1025;DHT22;501;48.214;11.350;2022-11-20T16:53:49;6.20;54.50
1025;DHT22;501;48.214;11.350;2022-11-20T16:56:18;6.20;54.30
1025;DHT22;501;48.214;11.350;2022-11-20T16:58:45;6.20;54.30
1025;DHT22;501;48.214;11.350;2022-11-20T17:01:13;6.20;53.90
1025;DHT22;501;48.214;11.350;2022-11-20T17:03:41;6.20;53.50
1025;DHT22;501;48.214;11.350;2022-11-20T17:06:18;6.10;52.90
1025;DHT22;501;48.214;11.350;2022-11-20T17:08:44;6.10;52.90
1025;DHT22;501;48.214;11.350;2022-11-20T17:11:15;6.00;52.70
1025;DHT22;501;48.214;11.350;2022-11-20T17:13:42;6.00;52.80
1025;DHT22;501;48.214;11.350;2022-11-20T17:16:13;6.00;52.80
1025;DHT22;501;48.214;11.350;2022-11-20T17:18:39;5.90;52.60
1025;DHT22;501;48.214;11.350;2022-11-20T17:21:06;5.90;52.50
1025;DHT22;501;48.214;11.350;2022-11-20T17:23:34;5.80;52.40
1025;DHT22;501;48.214;11.350;2022-11-20T17:26:04;5.80;52.30
1025;DHT22;501;48.214;11.350;2022-11-20T17:28:31;5.70;52.30
1025;DHT22;501;48.214;11.350;2022-11-20T17:31:10;5.70;52.50
1025;DHT22;501;48.214;11.350;2022-11-20T17:33:38;5.70;52.50
1025;DHT22;501;48.214;11.350;2022-11-20T17:36:05;5.60;53.00
1025;DHT22;501;48.214;11.350;2022-11-20T17:38:32;5.60;53.20
1025;DHT22;501;48.214;11.350;2022-11-20T17:41:05;5.50;53.40
1025;DHT22;501;48.214;11.350;2022-11-20T17:43:32;5.50;53.60
1025;DHT22;501;48.214;11.350;2022-11-20T17:45:58;5.50;53.90
1025;DHT22;501;48.214;11.350;2022-11-20T17:48:24;5.50;54.00
1025;DHT22;501;48.214;11.350;2022-11-20T17:50:49;5.40;54.20
1025;DHT22;501;48.214;11.350;2022-11-20T17:53:15;5.40;54.50
1025;DHT22;501;48.214;11.350;2022-11-20T17:55:41;5.40;54.60
1025;DHT22;501;48.214;11.350;2022-11-20T17:58:28;5.40;54.60
1025;DHT22;501;48.214;11.350;2022-11-20T18:00:53;5.40;54.60
1025;DHT22;501;48.214;11.350;2022-11-20T18:03:19;5.40;55.00
1025;DHT22;501;48.214;11.350;2022-11-20T18:05:44;5.40;55.50
1025;DHT22;501;48.214;11.350;2022-11-20T18:08:10;5.40;55.60
1025;DHT22;501;48.214;11.350;2022-11-20T18:10:36;5.40;55.90